WetterOnline ( http://www.wetteronline.de )

Wetter aktuell Offenbach

Aktuelles Wetter: Offenbach (119m)

6-stündlich | Neueste Meldungen
Ortszeit Temperatur Wetter
Mo, 20.08. 2:00 18.1° C fast wolkenlos
So, 19.08. 20:00 28.3° C fast wolkenlos
So, 19.08. 14:00 29.7° C wolkenlos
So, 19.08. 8:00 15.1° C leicht bewölkt
So, 19.08. 2:00 14.9° C wolkig
Sa, 18.08. 20:00 26.5° C leicht bewölkt
Sa, 18.08. 14:00 25.9° C wolkenlos
Sa, 18.08. 8:00 18.7° C wolkig
Ortszeit Temperatur Wetter
Mo, 20.08. 4:30 15.9° C wolkenlos
Mo, 20.08. 4:20 15.9° C wolkenlos
Mo, 20.08. 4:10 16.1° C fast wolkenlos
Mo, 20.08. 4:00 16.7° C wolkig
Mo, 20.08. 3:50 16.7° C bedeckt
Mo, 20.08. 3:40 16.9° C leicht bewölkt
Mo, 20.08. 3:30 17.0° C leicht bewölkt
Mo, 20.08. 3:00 17.4° C leicht bewölkt
Mo, 20.08. 2:30 17.8° C fast wolkenlos
Mo, 20.08. 2:00 18.1° C fast wolkenlos
Mo, 20.08. 1:30 18.7° C leicht bewölkt
Ortszeit Relative Feuchte Sichtweite
Mo, 20.08. 2:00 67% 50 km
So, 19.08. 20:00 26% >70 km
So, 19.08. 14:00 26% 45 km
So, 19.08. 8:00 69% 40 km
So, 19.08. 2:00 68% 45 km
Sa, 18.08. 20:00 29% 55 km
Sa, 18.08. 14:00 37% 55 km
Sa, 18.08. 8:00 64% 35 km
Ortszeit Relative Feuchte Sichtweite
Mo, 20.08. 4:30 77% 45 km
Mo, 20.08. 4:20 77% -
Mo, 20.08. 4:10 76% -
Mo, 20.08. 4:00 74% 40 km
Mo, 20.08. 3:50 74% -
Mo, 20.08. 3:40 73% -
Mo, 20.08. 3:30 72% 50 km
Mo, 20.08. 3:00 71% 50 km
Mo, 20.08. 2:30 69% 40 km
Mo, 20.08. 2:00 67% 50 km
Mo, 20.08. 1:30 64% 50 km
Ortszeit Niederschlagsmenge Niederschlagsart
Mo, 20.08. 2:00 0.0 l/m2 in 6 Std. -
So, 19.08. 20:00 0.0 l/m2 in 12 Std. -
So, 19.08. 14:00 0.0 l/m2 in 6 Std. -
So, 19.08. 8:00 0.0 l/m2 in 12 Std. -
So, 19.08. 2:00 0.0 l/m2 in 6 Std. -
Sa, 18.08. 20:00 0.0 l/m2 in 12 Std. -
Sa, 18.08. 14:00 0.0 l/m2 in 6 Std. -
Sa, 18.08. 8:00 0.0 l/m2 in 12 Std. -
Ortszeit Niederschlagsmenge Niederschlagsart
Mo, 20.08. 4:30 0.0 l/m2 in 1 Std. -
Mo, 20.08. 4:20 keine Meldung -
Mo, 20.08. 4:10 keine Meldung -
Mo, 20.08. 4:00 0.0 l/m2 in 1 Std. -
Mo, 20.08. 3:50 keine Meldung -
Mo, 20.08. 3:40 keine Meldung -
Mo, 20.08. 3:30 0.0 l/m2 in 1 Std. -
Mo, 20.08. 3:00 0.0 l/m2 in 1 Std. -
Mo, 20.08. 2:30 0.0 l/m2 in 1 Std. -
Mo, 20.08. 2:00 0.0 l/m2 in 1 Std. -
Mo, 20.08. 1:30 0.0 l/m2 in 1 Std. -
Ortszeit Stärke Spitze Richtung
km/h Bft. km/h Grad Sektor
Mo, 20.08. 2:00 4 1 14 180° S
So, 19.08. 20:00 6 1 37 220° SW
So, 19.08. 14:00 11 2 29 230° SW
So, 19.08. 8:00 4 1 7 80° O
So, 19.08. 2:00 0 0 18 - -
Sa, 18.08. 20:00 7 2 29 360° N
Sa, 18.08. 14:00 7 2 25 40° NO
Sa, 18.08. 8:00 7 2 20 340° N
Ortszeit Stärke Spitze Richtung
km/h Bft. km/h Grad Sektor
Mo, 20.08. 4:30 2 1 4 150° SO
Mo, 20.08. 4:20 2 1 - 150° SO
Mo, 20.08. 4:10 0 0 - 70° O
Mo, 20.08. 4:00 2 1 4 80° O
Mo, 20.08. 3:50 2 1 - 80° O
Mo, 20.08. 3:40 0 0 - 30° NO
Mo, 20.08. 3:30 4 1 4 160° S
Mo, 20.08. 3:00 4 1 7 190° S
Mo, 20.08. 2:30 4 1 7 200° S
Mo, 20.08. 2:00 4 1 7 180° S
Mo, 20.08. 1:30 4 1 7 200° S
Ortszeit Untergrenze Bedeckung Gattung
total tief tief mittel hoch
Mo, 20.08. 2:00 3000 m 1/8 1/8 - - -
So, 19.08. 20:00 3000 m 1/8 1/8 - - -
So, 19.08. 14:00 - 0/8 0/8 - - -
So, 19.08. 8:00 2700 m 3/8 1/8 - - -
So, 19.08. 2:00 10500 m 8/8 0/8 - - -
Sa, 18.08. 20:00 12000 m 8/8 0/8 - - -
Sa, 18.08. 14:00 - 0/8 0/8 - - -
Sa, 18.08. 8:00 10500 m 8/8 0/8 - - -
Ortszeit Bedeckungsgrad in Achtel und Wolkenuntergrenze
Mo, 20.08. 4:30 keine Wolken
Mo, 20.08. 4:20 keine Wolken
Mo, 20.08. 4:10 1(2700m) 1(3600m)
Mo, 20.08. 4:00 1(3600m) 2(10500m)
Mo, 20.08. 3:50 9 9 9
Mo, 20.08. 3:40 1(3000m) 3(10500m)
Mo, 20.08. 3:30 1(3000m) 2(10500m)
Mo, 20.08. 3:00 1(2400m) 3(10500m)
Mo, 20.08. 2:30 1(2700m) 3(10500m)
Mo, 20.08. 2:00 1(3000m)
Mo, 20.08. 1:30 3(3300m)
Ortszeit Luftdruck NN (hPa) Tendenz (hPa in 3 Std.)
Mo, 20.08. 2:00 1019 + 0,4
So, 19.08. 20:00 1017 - 0,9
So, 19.08. 14:00 1020 - 1,7
So, 19.08. 8:00 1022 + 0,2
So, 19.08. 2:00 1022 + 0,2
Sa, 18.08. 20:00 1020 - 0,1
Sa, 18.08. 14:00 1021 - 0,8
Sa, 18.08. 8:00 1022 + 1,0
Ortszeit Luftdruck NN (hPa) Tendenz (hPa in 3 Std.)
Mo, 20.08. 4:30 1019 + 0,1
Mo, 20.08. 4:20 1019 keine Meldung
Mo, 20.08. 4:10 1019 keine Meldung
Mo, 20.08. 4:00 1019 + 0,2
Mo, 20.08. 3:50 1019 keine Meldung
Mo, 20.08. 3:40 1019 keine Meldung
Mo, 20.08. 3:30 1019 + 0,2
Mo, 20.08. 3:00 1019 + 0,1
Mo, 20.08. 2:30 1019 + 0,3
Mo, 20.08. 2:00 1019 + 0,4
Mo, 20.08. 1:30 1019 + 0,6
Ortszeit Schneehöhe (cm)
Mo, 20.08. 2:00 -
So, 19.08. 20:00 -
So, 19.08. 14:00 -
So, 19.08. 8:00 -
So, 19.08. 2:00 -
Sa, 18.08. 20:00 -
Sa, 18.08. 14:00 -
Sa, 18.08. 8:00 -
Ortszeit Schneehöhe (cm)
Mo, 20.08. 4:30 -
Mo, 20.08. 4:20 -
Mo, 20.08. 4:10 -
Mo, 20.08. 4:00 -
Mo, 20.08. 3:50 -
Mo, 20.08. 3:40 -
Mo, 20.08. 3:30 -
Mo, 20.08. 3:00 -
Mo, 20.08. 2:30 -
Mo, 20.08. 2:00 -
Mo, 20.08. 1:30 -
Link zu dieser Seite / Seite empfehlen

Das Wetter in ...